sensor_id;sensor_type;location;lat;lon;timestamp;P1;durP1;ratioP1;P2;durP2;ratioP2
43319;SDS011;28914;48.722;9.332;2023-08-12T00:03:15;5.40;;;4.73;;
43319;SDS011;28914;48.722;9.332;2023-08-12T00:08:34;8.07;;;4.90;;
43319;SDS011;28914;48.722;9.332;2023-08-12T00:13:53;6.03;;;5.43;;
43319;SDS011;28914;48.722;9.332;2023-08-12T00:19:13;4.90;;;4.50;;
43319;SDS011;28914;48.722;9.332;2023-08-12T00:24:32;4.53;;;4.00;;
43319;SDS011;28914;48.722;9.332;2023-08-12T00:29:51;4.80;;;4.17;;
43319;SDS011;28914;48.722;9.332;2023-08-12T00:35:10;5.33;;;4.27;;
43319;SDS011;28914;48.722;9.332;2023-08-12T00:40:30;5.23;;;4.10;;
43319;SDS011;28914;48.722;9.332;2023-08-12T00:45:49;6.30;;;5.67;;
43319;SDS011;28914;48.722;9.332;2023-08-12T00:51:08;6.30;;;5.67;;
43319;SDS011;28914;48.722;9.332;2023-08-12T00:56:27;7.10;;;6.40;;
43319;SDS011;28914;48.722;9.332;2023-08-12T01:01:47;6.07;;;5.47;;
43319;SDS011;28914;48.722;9.332;2023-08-12T01:07:06;6.23;;;5.63;;
43319;SDS011;28914;48.722;9.332;2023-08-12T01:12:30;5.83;;;5.23;;
43319;SDS011;28914;48.722;9.332;2023-08-12T01:17:55;4.43;;;4.03;;
43319;SDS011;28914;48.722;9.332;2023-08-12T01:23:16;4.97;;;4.30;;
43319;SDS011;28914;48.722;9.332;2023-08-12T01:28:36;5.53;;;5.03;;
43319;SDS011;28914;48.722;9.332;2023-08-12T01:33:57;6.10;;;4.50;;
43319;SDS011;28914;48.722;9.332;2023-08-12T01:39:21;4.87;;;4.47;;
43319;SDS011;28914;48.722;9.332;2023-08-12T01:44:42;5.50;;;5.10;;
43319;SDS011;28914;48.722;9.332;2023-08-12T01:50:01;5.57;;;3.90;;
43319;SDS011;28914;48.722;9.332;2023-08-12T01:55:21;4.50;;;3.77;;
43319;SDS011;28914;48.722;9.332;2023-08-12T02:00:40;4.23;;;3.87;;
43319;SDS011;28914;48.722;9.332;2023-08-12T02:05:59;4.13;;;3.73;;
43319;SDS011;28914;48.722;9.332;2023-08-12T02:11:18;4.53;;;4.13;;
43319;SDS011;28914;48.722;9.332;2023-08-12T02:16:37;4.50;;;4.13;;
43319;SDS011;28914;48.722;9.332;2023-08-12T02:21:57;4.57;;;4.17;;
43319;SDS011;28914;48.722;9.332;2023-08-12T02:27:16;3.70;;;3.40;;
43319;SDS011;28914;48.722;9.332;2023-08-12T02:32:35;3.47;;;3.17;;
43319;SDS011;28914;48.722;9.332;2023-08-12T02:37:54;4.20;;;3.80;;
43319;SDS011;28914;48.722;9.332;2023-08-12T02:43:13;4.33;;;3.93;;
43319;SDS011;28914;48.722;9.332;2023-08-12T02:48:33;4.57;;;4.10;;
43319;SDS011;28914;48.722;9.332;2023-08-12T02:53:52;4.37;;;4.00;;
43319;SDS011;28914;48.722;9.332;2023-08-12T02:59:11;3.00;;;2.80;;
43319;SDS011;28914;48.722;9.332;2023-08-12T03:04:30;4.20;;;3.33;;
43319;SDS011;28914;48.722;9.332;2023-08-12T03:09:49;4.23;;;3.93;;
43319;SDS011;28914;48.722;9.332;2023-08-12T03:15:09;4.40;;;4.00;;
43319;SDS011;28914;48.722;9.332;2023-08-12T03:20:29;4.67;;;4.27;;
43319;SDS011;28914;48.722;9.332;2023-08-12T03:25:48;4.53;;;4.00;;
43319;SDS011;28914;48.722;9.332;2023-08-12T03:31:07;5.00;;;4.03;;
43319;SDS011;28914;48.722;9.332;2023-08-12T03:36:27;3.93;;;3.50;;
43319;SDS011;28914;48.722;9.332;2023-08-12T03:41:46;3.87;;;3.57;;
43319;SDS011;28914;48.722;9.332;2023-08-12T03:47:05;3.97;;;3.63;;
43319;SDS011;28914;48.722;9.332;2023-08-12T03:52:24;5.43;;;4.83;;
43319;SDS011;28914;48.722;9.332;2023-08-12T03:57:43;4.13;;;3.80;;
43319;SDS011;28914;48.722;9.332;2023-08-12T04:03:03;5.10;;;4.07;;
43319;SDS011;28914;48.722;9.332;2023-08-12T04:08:22;4.10;;;3.70;;
43319;SDS011;28914;48.722;9.332;2023-08-12T04:13:42;6.93;;;4.03;;
43319;SDS011;28914;48.722;9.332;2023-08-12T04:19:01;5.53;;;4.07;;
43319;SDS011;28914;48.722;9.332;2023-08-12T04:24:20;4.20;;;3.80;;
43319;SDS011;28914;48.722;9.332;2023-08-12T04:29:39;4.30;;;3.90;;
43319;SDS011;28914;48.722;9.332;2023-08-12T04:34:58;4.63;;;4.27;;
43319;SDS011;28914;48.722;9.332;2023-08-12T04:40:17;4.50;;;4.10;;
43319;SDS011;28914;48.722;9.332;2023-08-12T04:45:37;4.60;;;4.20;;
43319;SDS011;28914;48.722;9.332;2023-08-12T04:50:57;3.70;;;3.40;;
43319;SDS011;28914;48.722;9.332;2023-08-12T04:56:20;4.07;;;3.67;;
43319;SDS011;28914;48.722;9.332;2023-08-12T05:01:39;4.80;;;4.30;;
43319;SDS011;28914;48.722;9.332;2023-08-12T05:06:58;4.30;;;3.90;;
43319;SDS011;28914;48.722;9.332;2023-08-12T05:12:17;5.53;;;4.00;;
43319;SDS011;28914;48.722;9.332;2023-08-12T05:17:37;4.33;;;3.93;;
43319;SDS011;28914;48.722;9.332;2023-08-12T05:22:56;4.73;;;4.27;;
43319;SDS011;28914;48.722;9.332;2023-08-12T05:28:16;3.93;;;3.63;;
43319;SDS011;28914;48.722;9.332;2023-08-12T05:33:35;4.33;;;3.93;;
43319;SDS011;28914;48.722;9.332;2023-08-12T05:38:54;4.87;;;4.47;;
43319;SDS011;28914;48.722;9.332;2023-08-12T05:44:13;6.70;;;4.57;;
43319;SDS011;28914;48.722;9.332;2023-08-12T05:49:33;4.13;;;3.73;;
43319;SDS011;28914;48.722;9.332;2023-08-12T05:54:52;4.33;;;3.70;;
43319;SDS011;28914;48.722;9.332;2023-08-12T06:00:11;4.40;;;4.00;;
43319;SDS011;28914;48.722;9.332;2023-08-12T06:05:30;4.87;;;4.50;;
43319;SDS011;28914;48.722;9.332;2023-08-12T06:10:50;5.37;;;4.90;;
43319;SDS011;28914;48.722;9.332;2023-08-12T06:16:09;5.33;;;4.83;;
43319;SDS011;28914;48.722;9.332;2023-08-12T06:21:29;5.27;;;4.87;;
43319;SDS011;28914;48.722;9.332;2023-08-12T06:26:48;5.17;;;4.57;;
43319;SDS011;28914;48.722;9.332;2023-08-12T06:32:07;5.90;;;5.43;;
43319;SDS011;28914;48.722;9.332;2023-08-12T06:37:26;5.87;;;5.27;;
43319;SDS011;28914;48.722;9.332;2023-08-12T06:42:45;4.80;;;4.40;;
43319;SDS011;28914;48.722;9.332;2023-08-12T06:48:05;5.00;;;4.50;;
43319;SDS011;28914;48.722;9.332;2023-08-12T06:53:24;6.73;;;5.90;;
43319;SDS011;28914;48.722;9.332;2023-08-12T06:58:44;5.60;;;5.10;;
43319;SDS011;28914;48.722;9.332;2023-08-12T07:04:04;6.33;;;5.73;;
43319;SDS011;28914;48.722;9.332;2023-08-12T07:09:23;5.10;;;4.70;;
43319;SDS011;28914;48.722;9.332;2023-08-12T07:14:42;5.70;;;5.20;;
43319;SDS011;28914;48.722;9.332;2023-08-12T07:20:02;5.20;;;4.30;;
43319;SDS011;28914;48.722;9.332;2023-08-12T07:25:23;5.70;;;4.60;;
43319;SDS011;28914;48.722;9.332;2023-08-12T07:30:42;4.57;;;4.17;;
43319;SDS011;28914;48.722;9.332;2023-08-12T07:36:02;6.40;;;4.90;;
43319;SDS011;28914;48.722;9.332;2023-08-12T07:41:21;5.00;;;4.60;;
43319;SDS011;28914;48.722;9.332;2023-08-12T07:46:40;4.60;;;3.77;;
43319;SDS011;28914;48.722;9.332;2023-08-12T07:51:59;5.97;;;4.33;;
43319;SDS011;28914;48.722;9.332;2023-08-12T07:57:18;4.50;;;3.92;;
43319;SDS011;28914;48.722;9.332;2023-08-12T08:02:42;4.07;;;3.78;;
43319;SDS011;28914;48.722;9.332;2023-08-12T08:08:01;4.82;;;3.95;;
43319;SDS011;28914;48.722;9.332;2023-08-12T08:13:21;4.53;;;3.63;;
43319;SDS011;28914;48.722;9.332;2023-08-12T08:18:40;7.20;;;3.90;;
43319;SDS011;28914;48.722;9.332;2023-08-12T08:24:00;7.35;;;4.05;;
43319;SDS011;28914;48.722;9.332;2023-08-12T08:29:19;4.35;;;3.55;;
43319;SDS011;28914;48.722;9.332;2023-08-12T08:34:39;4.32;;;3.92;;
43319;SDS011;28914;48.722;9.332;2023-08-12T08:39:58;4.03;;;3.63;;
43319;SDS011;28914;48.722;9.332;2023-08-12T08:45:17;4.15;;;3.70;;
43319;SDS011;28914;48.722;9.332;2023-08-12T08:50:38;3.22;;;2.92;;
43319;SDS011;28914;48.722;9.332;2023-08-12T08:55:59;4.53;;;3.35;;
43319;SDS011;28914;48.722;9.332;2023-08-12T09:01:19;3.35;;;3.05;;
43319;SDS011;28914;48.722;9.332;2023-08-12T09:06:40;2.97;;;2.75;;
43319;SDS011;28914;48.722;9.332;2023-08-12T09:12:01;3.38;;;3.17;;
43319;SDS011;28914;48.722;9.332;2023-08-12T09:17:21;3.90;;;3.42;;
43319;SDS011;28914;48.722;9.332;2023-08-12T09:22:40;4.25;;;3.40;;
43319;SDS011;28914;48.722;9.332;2023-08-12T09:28:00;3.22;;;2.95;;
43319;SDS011;28914;48.722;9.332;2023-08-12T09:33:25;3.38;;;2.97;;
43319;SDS011;28914;48.722;9.332;2023-08-12T09:38:45;2.72;;;2.53;;
43319;SDS011;28914;48.722;9.332;2023-08-12T09:44:05;3.15;;;2.85;;
43319;SDS011;28914;48.722;9.332;2023-08-12T09:49:24;2.85;;;2.65;;
43319;SDS011;28914;48.722;9.332;2023-08-12T09:54:44;2.47;;;2.28;;
43319;SDS011;28914;48.722;9.332;2023-08-12T10:00:04;3.05;;;2.55;;
43319;SDS011;28914;48.722;9.332;2023-08-12T10:05:31;2.88;;;2.60;;
43319;SDS011;28914;48.722;9.332;2023-08-12T10:10:51;2.40;;;2.20;;
43319;SDS011;28914;48.722;9.332;2023-08-12T10:16:11;2.78;;;2.30;;
43319;SDS011;28914;48.722;9.332;2023-08-12T10:21:30;2.60;;;2.40;;
43319;SDS011;28914;48.722;9.332;2023-08-12T10:26:50;3.08;;;2.78;;
43319;SDS011;28914;48.722;9.332;2023-08-12T10:32:11;6.43;;;2.22;;
43319;SDS011;28914;48.722;9.332;2023-08-12T10:37:33;2.30;;;2.10;;
43319;SDS011;28914;48.722;9.332;2023-08-12T10:42:53;3.00;;;2.00;;
43319;SDS011;28914;48.722;9.332;2023-08-12T10:48:16;3.03;;;2.45;;
43319;SDS011;28914;48.722;9.332;2023-08-12T10:53:43;3.97;;;2.80;;
43319;SDS011;28914;48.722;9.332;2023-08-12T10:59:07;2.50;;;2.30;;
43319;SDS011;28914;48.722;9.332;2023-08-12T11:04:26;4.97;;;2.60;;
43319;SDS011;28914;48.722;9.332;2023-08-12T11:09:45;3.45;;;2.90;;
43319;SDS011;28914;48.722;9.332;2023-08-12T11:15:13;2.60;;;2.35;;
43319;SDS011;28914;48.722;9.332;2023-08-12T11:20:34;2.50;;;2.30;;
43319;SDS011;28914;48.722;9.332;2023-08-12T11:25:54;2.47;;;2.28;;
43319;SDS011;28914;48.722;9.332;2023-08-12T11:31:13;2.53;;;2.33;;
43319;SDS011;28914;48.722;9.332;2023-08-12T11:36:32;3.08;;;2.20;;
43319;SDS011;28914;48.722;9.332;2023-08-12T11:41:51;2.40;;;2.20;;
43319;SDS011;28914;48.722;9.332;2023-08-12T11:47:11;3.20;;;2.65;;
43319;SDS011;28914;48.722;9.332;2023-08-12T11:52:30;2.80;;;2.60;;
43319;SDS011;28914;48.722;9.332;2023-08-12T11:57:50;3.33;;;2.35;;
43319;SDS011;28914;48.722;9.332;2023-08-12T12:03:10;2.65;;;2.40;;
43319;SDS011;28914;48.722;9.332;2023-08-12T12:08:33;4.50;;;2.80;;
43319;SDS011;28914;48.722;9.332;2023-08-12T12:13:53;6.18;;;2.75;;
43319;SDS011;28914;48.722;9.332;2023-08-12T12:19:15;3.20;;;2.75;;
43319;SDS011;28914;48.722;9.332;2023-08-12T12:24:45;2.95;;;2.42;;
43319;SDS011;28914;48.722;9.332;2023-08-12T12:30:07;3.63;;;2.60;;
43319;SDS011;28914;48.722;9.332;2023-08-12T12:35:28;2.70;;;2.40;;
43319;SDS011;28914;48.722;9.332;2023-08-12T12:40:47;4.03;;;2.40;;
43319;SDS011;28914;48.722;9.332;2023-08-12T12:46:06;2.83;;;2.07;;
43319;SDS011;28914;48.722;9.332;2023-08-12T12:51:26;2.90;;;2.17;;
43319;SDS011;28914;48.722;9.332;2023-08-12T12:56:46;6.27;;;3.40;;
43319;SDS011;28914;48.722;9.332;2023-08-12T13:02:06;6.23;;;2.60;;
43319;SDS011;28914;48.722;9.332;2023-08-12T13:07:25;2.60;;;1.73;;
43319;SDS011;28914;48.722;9.332;2023-08-12T13:12:44;4.40;;;2.70;;
43319;SDS011;28914;48.722;9.332;2023-08-12T13:18:03;3.00;;;2.53;;
43319;SDS011;28914;48.722;9.332;2023-08-12T13:23:22;4.17;;;2.17;;
43319;SDS011;28914;48.722;9.332;2023-08-12T13:28:42;3.73;;;2.33;;
43319;SDS011;28914;48.722;9.332;2023-08-12T13:34:02;4.10;;;2.90;;
43319;SDS011;28914;48.722;9.332;2023-08-12T13:39:22;1.93;;;1.77;;
43319;SDS011;28914;48.722;9.332;2023-08-12T13:44:41;2.53;;;2.33;;
43319;SDS011;28914;48.722;9.332;2023-08-12T13:50:00;2.80;;;2.50;;
43319;SDS011;28914;48.722;9.332;2023-08-12T13:55:19;2.50;;;1.87;;
43319;SDS011;28914;48.722;9.332;2023-08-12T14:00:38;2.63;;;1.90;;
43319;SDS011;28914;48.722;9.332;2023-08-12T14:05:57;2.73;;;2.43;;
43319;SDS011;28914;48.722;9.332;2023-08-12T14:11:16;2.53;;;2.20;;
43319;SDS011;28914;48.722;9.332;2023-08-12T14:16:36;2.87;;;2.53;;
43319;SDS011;28914;48.722;9.332;2023-08-12T14:21:55;2.80;;;2.43;;
43319;SDS011;28914;48.722;9.332;2023-08-12T14:27:15;2.00;;;1.90;;
43319;SDS011;28914;48.722;9.332;2023-08-12T14:32:36;2.00;;;1.60;;
43319;SDS011;28914;48.722;9.332;2023-08-12T14:37:55;1.90;;;1.40;;
43319;SDS011;28914;48.722;9.332;2023-08-12T14:43:15;1.70;;;1.23;;
43319;SDS011;28914;48.722;9.332;2023-08-12T14:48:34;1.90;;;1.40;;
43319;SDS011;28914;48.722;9.332;2023-08-12T14:53:53;2.00;;;1.80;;
43319;SDS011;28914;48.722;9.332;2023-08-12T14:59:12;1.93;;;1.30;;
43319;SDS011;28914;48.722;9.332;2023-08-12T15:04:32;2.00;;;1.80;;
43319;SDS011;28914;48.722;9.332;2023-08-12T15:09:52;2.10;;;1.70;;
43319;SDS011;28914;48.722;9.332;2023-08-12T15:15:13;3.47;;;2.50;;
43319;SDS011;28914;48.722;9.332;2023-08-12T15:20:32;2.90;;;1.93;;
43319;SDS011;28914;48.722;9.332;2023-08-12T15:25:51;3.07;;;2.50;;
43319;SDS011;28914;48.722;9.332;2023-08-12T15:31:11;2.77;;;1.80;;
43319;SDS011;28914;48.722;9.332;2023-08-12T15:36:31;2.20;;;2.00;;
43319;SDS011;28914;48.722;9.332;2023-08-12T15:41:52;2.37;;;2.10;;
43319;SDS011;28914;48.722;9.332;2023-08-12T15:47:11;2.10;;;1.90;;
43319;SDS011;28914;48.722;9.332;2023-08-12T15:52:31;1.80;;;1.43;;
43319;SDS011;28914;48.722;9.332;2023-08-12T15:57:52;2.87;;;1.73;;
43319;SDS011;28914;48.722;9.332;2023-08-12T16:03:12;2.30;;;2.00;;
43319;SDS011;28914;48.722;9.332;2023-08-12T16:08:31;2.23;;;1.70;;
43319;SDS011;28914;48.722;9.332;2023-08-12T16:13:50;3.17;;;1.90;;
43319;SDS011;28914;48.722;9.332;2023-08-12T16:19:09;1.97;;;1.60;;
43319;SDS011;28914;48.722;9.332;2023-08-12T16:24:29;2.40;;;1.63;;
43319;SDS011;28914;48.722;9.332;2023-08-12T16:29:48;2.47;;;2.23;;
43319;SDS011;28914;48.722;9.332;2023-08-12T16:35:07;2.70;;;1.87;;
43319;SDS011;28914;48.722;9.332;2023-08-12T16:40:26;4.30;;;2.90;;
43319;SDS011;28914;48.722;9.332;2023-08-12T16:45:48;3.77;;;2.70;;
43319;SDS011;28914;48.722;9.332;2023-08-12T16:51:07;3.83;;;2.77;;
43319;SDS011;28914;48.722;9.332;2023-08-12T16:56:27;2.40;;;2.10;;
43319;SDS011;28914;48.722;9.332;2023-08-12T17:01:46;4.83;;;2.43;;
43319;SDS011;28914;48.722;9.332;2023-08-12T17:07:06;4.03;;;3.00;;
43319;SDS011;28914;48.722;9.332;2023-08-12T17:12:25;3.10;;;2.80;;
43319;SDS011;28914;48.722;9.332;2023-08-12T17:17:44;3.23;;;2.67;;
43319;SDS011;28914;48.722;9.332;2023-08-12T17:23:04;3.47;;;2.70;;
43319;SDS011;28914;48.722;9.332;2023-08-12T17:28:23;5.07;;;3.60;;
43319;SDS011;28914;48.722;9.332;2023-08-12T17:33:42;4.60;;;4.07;;
43319;SDS011;28914;48.722;9.332;2023-08-12T17:39:01;4.10;;;3.70;;
43319;SDS011;28914;48.722;9.332;2023-08-12T17:44:21;5.03;;;4.53;;
43319;SDS011;28914;48.722;9.332;2023-08-12T17:49:41;3.50;;;3.20;;
43319;SDS011;28914;48.722;9.332;2023-08-12T17:55:00;3.40;;;3.10;;
43319;SDS011;28914;48.722;9.332;2023-08-12T18:00:19;3.00;;;2.70;;
43319;SDS011;28914;48.722;9.332;2023-08-12T18:05:41;2.90;;;2.70;;
43319;SDS011;28914;48.722;9.332;2023-08-12T18:11:01;2.50;;;1.90;;
43319;SDS011;28914;48.722;9.332;2023-08-12T18:16:21;2.53;;;2.33;;
43319;SDS011;28914;48.722;9.332;2023-08-12T18:21:40;2.10;;;1.90;;
43319;SDS011;28914;48.722;9.332;2023-08-12T18:27:00;2.60;;;2.30;;
43319;SDS011;28914;48.722;9.332;2023-08-12T18:32:19;2.43;;;2.23;;
43319;SDS011;28914;48.722;9.332;2023-08-12T18:37:38;2.47;;;2.20;;
43319;SDS011;28914;48.722;9.332;2023-08-12T18:42:58;2.50;;;2.30;;
43319;SDS011;28914;48.722;9.332;2023-08-12T18:48:18;3.73;;;2.40;;
43319;SDS011;28914;48.722;9.332;2023-08-12T18:53:37;2.53;;;2.33;;
43319;SDS011;28914;48.722;9.332;2023-08-12T18:58:56;2.17;;;1.80;;
43319;SDS011;28914;48.722;9.332;2023-08-12T19:04:16;2.73;;;2.30;;
43319;SDS011;28914;48.722;9.332;2023-08-12T19:09:35;2.70;;;2.50;;
43319;SDS011;28914;48.722;9.332;2023-08-12T19:14:54;2.40;;;2.03;;
43319;SDS011;28914;48.722;9.332;2023-08-12T19:20:14;3.27;;;2.20;;
43319;SDS011;28914;48.722;9.332;2023-08-12T19:25:33;2.40;;;1.93;;
43319;SDS011;28914;48.722;9.332;2023-08-12T19:30:52;2.27;;;2.07;;
43319;SDS011;28914;48.722;9.332;2023-08-12T19:36:11;2.60;;;2.10;;
43319;SDS011;28914;48.722;9.332;2023-08-12T19:41:31;2.37;;;1.70;;
43319;SDS011;28914;48.722;9.332;2023-08-12T19:46:50;3.10;;;2.30;;
43319;SDS011;28914;48.722;9.332;2023-08-12T19:52:09;2.40;;;2.20;;
43319;SDS011;28914;48.722;9.332;2023-08-12T19:57:28;2.33;;;2.07;;
43319;SDS011;28914;48.722;9.332;2023-08-12T20:02:48;2.87;;;2.57;;
43319;SDS011;28914;48.722;9.332;2023-08-12T20:08:08;3.50;;;3.20;;
43319;SDS011;28914;48.722;9.332;2023-08-12T20:13:27;2.90;;;2.70;;
43319;SDS011;28914;48.722;9.332;2023-08-12T20:18:46;2.27;;;2.00;;
43319;SDS011;28914;48.722;9.332;2023-08-12T20:24:07;2.37;;;2.17;;
43319;SDS011;28914;48.722;9.332;2023-08-12T20:29:27;2.60;;;2.17;;
43319;SDS011;28914;48.722;9.332;2023-08-12T20:34:46;2.90;;;2.60;;
43319;SDS011;28914;48.722;9.332;2023-08-12T20:40:06;2.93;;;2.63;;
43319;SDS011;28914;48.722;9.332;2023-08-12T20:45:26;3.13;;;2.80;;
43319;SDS011;28914;48.722;9.332;2023-08-12T20:50:46;3.13;;;2.80;;
43319;SDS011;28914;48.722;9.332;2023-08-12T20:56:05;4.83;;;2.87;;
43319;SDS011;28914;48.722;9.332;2023-08-12T21:01:24;5.10;;;3.90;;
43319;SDS011;28914;48.722;9.332;2023-08-12T21:06:43;4.10;;;3.20;;
43319;SDS011;28914;48.722;9.332;2023-08-12T21:12:02;3.50;;;3.20;;
43319;SDS011;28914;48.722;9.332;2023-08-12T21:17:22;4.67;;;3.40;;
43319;SDS011;28914;48.722;9.332;2023-08-12T21:22:42;4.43;;;4.03;;
43319;SDS011;28914;48.722;9.332;2023-08-12T21:28:03;5.30;;;4.80;;
43319;SDS011;28914;48.722;9.332;2023-08-12T21:33:22;4.33;;;4.00;;
43319;SDS011;28914;48.722;9.332;2023-08-12T21:38:41;4.20;;;3.90;;
43319;SDS011;28914;48.722;9.332;2023-08-12T21:44:01;4.33;;;3.50;;
43319;SDS011;28914;48.722;9.332;2023-08-12T21:49:20;3.33;;;3.03;;
43319;SDS011;28914;48.722;9.332;2023-08-12T21:54:41;5.13;;;4.20;;
43319;SDS011;28914;48.722;9.332;2023-08-12T22:00:02;5.47;;;4.70;;
43319;SDS011;28914;48.722;9.332;2023-08-12T22:05:22;5.10;;;3.60;;
43319;SDS011;28914;48.722;9.332;2023-08-12T22:10:42;3.47;;;3.17;;
43319;SDS011;28914;48.722;9.332;2023-08-12T22:16:01;4.40;;;3.80;;
43319;SDS011;28914;48.722;9.332;2023-08-12T22:21:22;3.80;;;3.30;;
43319;SDS011;28914;48.722;9.332;2023-08-12T22:26:41;3.73;;;3.30;;
43319;SDS011;28914;48.722;9.332;2023-08-12T22:32:00;3.40;;;3.00;;
43319;SDS011;28914;48.722;9.332;2023-08-12T22:37:19;3.17;;;2.97;;
43319;SDS011;28914;48.722;9.332;2023-08-12T22:42:38;4.40;;;2.93;;
43319;SDS011;28914;48.722;9.332;2023-08-12T22:47:58;3.60;;;3.23;;
43319;SDS011;28914;48.722;9.332;2023-08-12T22:53:17;3.53;;;3.20;;
43319;SDS011;28914;48.722;9.332;2023-08-12T22:58:36;4.10;;;3.23;;
43319;SDS011;28914;48.722;9.332;2023-08-12T23:03:56;4.90;;;4.50;;
43319;SDS011;28914;48.722;9.332;2023-08-12T23:09:15;4.70;;;3.53;;
43319;SDS011;28914;48.722;9.332;2023-08-12T23:14:34;5.07;;;3.80;;
43319;SDS011;28914;48.722;9.332;2023-08-12T23:19:53;3.97;;;3.67;;
43319;SDS011;28914;48.722;9.332;2023-08-12T23:25:12;3.90;;;3.50;;
43319;SDS011;28914;48.722;9.332;2023-08-12T23:30:32;4.57;;;4.17;;
43319;SDS011;28914;48.722;9.332;2023-08-12T23:35:51;4.70;;;4.30;;
43319;SDS011;28914;48.722;9.332;2023-08-12T23:41:10;4.03;;;3.73;;
43319;SDS011;28914;48.722;9.332;2023-08-12T23:46:29;4.10;;;3.80;;
43319;SDS011;28914;48.722;9.332;2023-08-12T23:51:49;5.17;;;4.20;;
43319;SDS011;28914;48.722;9.332;2023-08-12T23:57:08;4.77;;;3.97;;
